createdAt,value
2023-05-05T00:00:57.688Z,1.04
2023-05-05T00:01:57.843Z,1.04
2023-05-05T00:02:57.987Z,1.04
2023-05-05T00:03:58.115Z,1.04
2023-05-05T00:04:58.232Z,1.04
2023-05-05T00:05:58.348Z,1.04
2023-05-05T00:06:58.490Z,1.04
2023-05-05T00:07:58.635Z,1.04
2023-05-05T00:08:58.793Z,1.04
2023-05-05T00:09:58.942Z,1.04
2023-05-05T00:10:59.089Z,1.04
2023-05-05T00:11:59.247Z,1.04
2023-05-05T00:12:59.367Z,1.04
2023-05-05T00:13:59.504Z,1.04
2023-05-05T00:14:59.646Z,1.04
2023-05-05T00:15:59.803Z,1.04
2023-05-05T00:16:59.964Z,1.04
2023-05-05T00:18:00.221Z,1.04
2023-05-05T00:19:00.259Z,1.04
2023-05-05T00:20:00.409Z,1.04
2023-05-05T00:21:00.565Z,1.04
2023-05-05T00:22:00.716Z,1.04
2023-05-05T00:23:00.877Z,1.04
2023-05-05T00:24:01.015Z,1.04
2023-05-05T00:25:01.181Z,1.04
2023-05-05T00:26:01.321Z,1.04
2023-05-05T00:27:01.463Z,1.04
2023-05-05T00:28:01.614Z,1.04
2023-05-05T00:29:01.784Z,1.04
2023-05-05T00:30:01.931Z,1.04
2023-05-05T00:31:02.209Z,1.04
2023-05-05T00:32:02.232Z,1.04
2023-05-05T00:33:02.466Z,1.04
2023-05-05T00:34:02.528Z,1.04
2023-05-05T00:35:02.695Z,1.04
2023-05-05T00:36:02.849Z,1.04
2023-05-05T00:37:02.983Z,1.04
2023-05-05T00:38:03.143Z,1.04
2023-05-05T00:39:03.291Z,1.04
2023-05-05T00:40:03.440Z,1.04
2023-05-05T00:41:03.549Z,1.04
2023-05-05T00:42:03.644Z,1.04
2023-05-05T00:43:03.803Z,1.04
2023-05-05T00:44:03.948Z,1.04
2023-05-05T00:45:04.112Z,1.04
2023-05-05T00:46:04.293Z,1.04
2023-05-05T00:47:04.407Z,1.04
2023-05-05T00:48:04.575Z,1.04
2023-05-05T00:49:04.694Z,1.04
2023-05-05T00:50:04.845Z,1.04
2023-05-05T00:51:04.970Z,1.04
2023-05-05T00:52:05.126Z,1.04
2023-05-05T00:53:05.268Z,1.04
2023-05-05T00:54:05.418Z,1.04
2023-05-05T00:55:05.572Z,1.04
2023-05-05T00:56:05.728Z,1.04
2023-05-05T00:57:05.877Z,1.04
2023-05-05T00:58:06.024Z,1.04
2023-05-05T00:59:06.186Z,1.04
2023-05-05T01:00:06.621Z,1.04
2023-05-05T01:01:06.436Z,1.04
2023-05-05T01:02:06.526Z,1.04
2023-05-05T01:03:06.759Z,1.04
2023-05-05T01:04:06.864Z,1.04
2023-05-05T01:05:06.887Z,1.04
2023-05-05T01:06:07.013Z,1.04
2023-05-05T01:07:07.093Z,1.04
2023-05-05T01:08:07.263Z,1.04
2023-05-05T01:09:07.393Z,1.04
2023-05-05T01:10:18.669Z,1.04
2023-05-05T01:11:07.696Z,1.04
2023-05-05T01:12:07.803Z,1.04
2023-05-05T01:13:08.031Z,1.04
2023-05-05T01:14:08.114Z,1.04
2023-05-05T01:15:08.247Z,1.04
2023-05-05T01:16:08.471Z,1.04
2023-05-05T01:17:08.514Z,1.04
2023-05-05T01:18:08.651Z,1.04
2023-05-05T01:19:08.811Z,1.04
2023-05-05T01:20:09.164Z,1.04
2023-05-05T01:21:09.114Z,1.04
2023-05-05T01:22:09.266Z,1.04
2023-05-05T01:23:09.427Z,1.04
2023-05-05T01:24:09.569Z,1.04
2023-05-05T01:25:09.726Z,1.04
2023-05-05T01:26:09.878Z,1.04
2023-05-05T01:27:10.022Z,1.04
2023-05-05T01:28:10.177Z,1.04
2023-05-05T01:29:10.322Z,1.04
2023-05-05T01:30:10.516Z,1.04
2023-05-05T01:31:10.639Z,1.04
2023-05-05T01:32:10.734Z,1.04
2023-05-05T01:34:11.649Z,1.04
2023-05-05T01:36:11.558Z,1.04
2023-05-05T01:38:12.349Z,1.04
2023-05-05T01:39:11.659Z,1.04
2023-05-05T01:40:11.798Z,1.04
2023-05-05T01:41:11.941Z,1.04
2023-05-05T01:42:12.037Z,1.04
2023-05-05T01:43:12.218Z,1.04
2023-05-05T01:44:12.301Z,1.04
2023-05-05T01:45:12.443Z,1.04
2023-05-05T01:46:12.636Z,1.04
2023-05-05T01:47:12.760Z,1.04
2023-05-05T01:48:12.910Z,1.04
2023-05-05T01:49:13.018Z,1.04
2023-05-05T01:50:13.160Z,1.04
2023-05-05T01:51:13.305Z,1.04
2023-05-05T01:52:13.462Z,1.04
2023-05-05T01:53:13.616Z,1.04
2023-05-05T01:54:13.715Z,1.04
2023-05-05T01:55:13.879Z,1.04
2023-05-05T01:56:14.021Z,1.04
2023-05-05T01:57:14.164Z,1.04
2023-05-05T01:58:14.330Z,1.04
2023-05-05T01:59:14.480Z,1.04
2023-05-05T02:00:14.626Z,1.04
2023-05-05T02:01:14.828Z,1.04
2023-05-05T02:02:14.908Z,1.04
2023-05-05T02:03:15.024Z,1.04
2023-05-05T02:04:15.129Z,1.04
2023-05-05T02:05:15.247Z,1.04
2023-05-05T02:06:15.404Z,1.04
2023-05-05T02:07:15.541Z,1.04
2023-05-05T02:08:15.685Z,1.04
2023-05-05T02:09:15.830Z,1.04
2023-05-05T02:10:15.991Z,1.04
2023-05-05T02:11:16.155Z,1.04
2023-05-05T02:12:16.310Z,1.04
2023-05-05T02:13:16.495Z,1.04
2023-05-05T02:14:16.561Z,1.04
2023-05-05T02:15:16.716Z,1.04
2023-05-05T02:16:16.990Z,1.04
2023-05-05T02:17:17.030Z,1.04
2023-05-05T02:18:17.171Z,1.04
2023-05-05T02:19:17.307Z,1.04
2023-05-05T02:20:17.463Z,1.04
2023-05-05T02:21:17.628Z,1.04
2023-05-05T02:22:17.776Z,1.04
2023-05-05T02:23:17.907Z,1.04
2023-05-05T02:24:18.060Z,1.04
2023-05-05T02:25:18.253Z,1.04
2023-05-05T02:26:18.387Z,1.04
2023-05-05T02:27:18.526Z,1.04
2023-05-05T02:28:18.674Z,1.04
2023-05-05T02:29:18.810Z,1.04
2023-05-05T02:30:19.001Z,1.04
2023-05-05T02:31:19.180Z,1.04
2023-05-05T02:32:19.246Z,1.04
2023-05-05T02:33:19.370Z,1.04
2023-05-05T02:34:19.536Z,1.04
2023-05-05T02:35:19.661Z,1.04
2023-05-05T02:36:19.994Z,1.04
2023-05-05T02:37:19.986Z,1.04
2023-05-05T02:38:20.150Z,1.04
2023-05-05T02:39:20.298Z,1.04
2023-05-05T02:40:20.442Z,1.04
2023-05-05T02:41:20.553Z,1.04
2023-05-05T02:42:20.714Z,1.04
2023-05-05T02:43:20.889Z,1.04
2023-05-05T02:44:21.018Z,1.04
2023-05-05T02:45:21.151Z,1.04
2023-05-05T02:46:21.274Z,1.04
2023-05-05T02:47:21.411Z,1.04
2023-05-05T02:48:21.557Z,1.04
2023-05-05T02:49:21.709Z,1.04
2023-05-05T02:50:21.886Z,1.04
2023-05-05T02:51:22.006Z,1.04
2023-05-05T02:52:22.162Z,1.04
2023-05-05T02:53:22.317Z,1.04
2023-05-05T02:54:22.431Z,1.04
2023-05-05T02:55:22.566Z,2
2023-05-05T02:56:22.734Z,2
2023-05-05T02:57:22.865Z,2
2023-05-05T02:58:23.024Z,2
2023-05-05T02:59:23.191Z,2
2023-05-05T03:00:23.281Z,3.04
2023-05-05T03:01:23.429Z,3.04
2023-05-05T03:02:23.580Z,3.04
2023-05-05T03:03:23.681Z,4
2023-05-05T03:04:23.738Z,4
2023-05-05T03:05:23.888Z,5.04
2023-05-05T03:06:24.038Z,6
2023-05-05T03:07:24.189Z,7.04
2023-05-05T03:08:24.349Z,8
2023-05-05T03:09:24.495Z,9.04
2023-05-05T03:10:24.648Z,10
2023-05-05T03:11:24.748Z,12
2023-05-05T03:12:24.896Z,14
2023-05-05T03:13:25.046Z,16
2023-05-05T03:14:25.212Z,18
2023-05-05T03:15:25.357Z,22
2023-05-05T03:16:25.530Z,25.04
2023-05-05T03:17:25.693Z,29.04
2023-05-05T03:18:25.758Z,33.04
2023-05-05T03:19:25.876Z,38
2023-05-05T03:20:26.005Z,44
2023-05-05T03:21:26.121Z,50
2023-05-05T03:22:26.259Z,57.04
2023-05-05T03:23:26.414Z,64
2023-05-05T03:24:26.558Z,72
2023-05-05T03:25:26.720Z,82
2023-05-05T03:26:26.819Z,90
2023-05-05T03:27:26.972Z,89.04
2023-05-05T03:28:27.081Z,102
2023-05-05T03:29:27.243Z,113.04
2023-05-05T03:30:27.370Z,125.04
2023-05-05T03:31:27.539Z,141.04
2023-05-05T03:32:27.654Z,156
2023-05-05T03:33:27.737Z,171.04
2023-05-05T03:34:27.891Z,192
2023-05-05T03:35:28.099Z,209.12
2023-05-05T03:36:29.319Z,226.08
2023-05-05T03:37:28.339Z,249.12
2023-05-05T03:38:28.512Z,267.04
2023-05-05T03:39:28.651Z,284
2023-05-05T03:40:36.592Z,300
2023-05-05T03:41:28.936Z,325.12
2023-05-05T03:42:29.097Z,347.2
2023-05-05T03:43:29.248Z,376
2023-05-05T03:44:29.414Z,402.24
2023-05-05T03:45:29.578Z,432
2023-05-05T03:46:29.701Z,462.08
2023-05-05T03:47:29.822Z,503.04
2023-05-05T03:48:29.900Z,537.28
2023-05-05T03:49:30.046Z,570.24
2023-05-05T03:50:30.212Z,603.2
2023-05-05T03:51:30.355Z,635.2
2023-05-05T03:52:30.558Z,677.12
2023-05-05T03:53:30.658Z,711.04
2023-05-05T03:54:30.756Z,745.6
2023-05-05T03:55:30.926Z,779.52
2023-05-05T03:56:31.061Z,814.08
2023-05-05T03:57:31.218Z,857.6
2023-05-05T03:58:31.363Z,889.6
2023-05-05T03:59:31.476Z,920.32
2023-05-05T04:00:31.630Z,964.48
2023-05-05T04:01:31.780Z,1002.24
2023-05-05T04:02:32.022Z,1049.6
2023-05-05T04:03:32.193Z,1093.12
2023-05-05T04:04:32.252Z,1139.2
2023-05-05T04:05:32.329Z,1197.44
2023-05-05T04:06:32.429Z,1239.04
2023-05-05T04:07:32.580Z,1276.16
2023-05-05T04:08:32.738Z,1392.64
2023-05-05T04:09:32.843Z,1461.76
2023-05-05T04:10:32.990Z,1543.68
2023-05-05T04:11:33.140Z,1576.96
2023-05-05T04:12:33.323Z,1621.76
2023-05-05T04:13:33.470Z,1763.84
2023-05-05T04:14:33.613Z,1867.52
2023-05-05T04:15:33.752Z,2003.2
2023-05-05T04:16:33.876Z,2158.08
2023-05-05T04:17:33.977Z,2133.76
2023-05-05T04:18:34.069Z,2195.2
2023-05-05T04:19:34.217Z,2332.16
2023-05-05T04:20:34.309Z,2328.32
2023-05-05T04:21:34.480Z,2449.92
2023-05-05T04:22:34.641Z,2604.8
2023-05-05T04:23:34.764Z,2746.88
2023-05-05T04:24:34.924Z,2944
2023-05-05T04:25:35.044Z,3220.48
2023-05-05T04:26:35.186Z,3358.72
2023-05-05T04:27:35.331Z,3404.8
2023-05-05T04:28:35.474Z,3479.04
2023-05-05T04:29:35.574Z,3540.48
2023-05-05T04:30:35.734Z,3299.84
2023-05-05T04:31:35.944Z,3023.36
2023-05-05T04:32:36.059Z,2982.4
2023-05-05T04:33:36.193Z,3015.68
2023-05-05T04:34:36.339Z,3089.92
2023-05-05T04:35:36.484Z,3200
2023-05-05T04:36:36.648Z,3225.6
2023-05-05T04:37:36.796Z,3189.76
2023-05-05T04:38:36.987Z,3374.08
2023-05-05T04:39:37.088Z,3637.76
2023-05-05T04:40:37.252Z,3927.04
2023-05-05T04:41:37.395Z,4213.76
2023-05-05T04:42:37.579Z,4398.08
2023-05-05T04:43:37.700Z,4584.96
2023-05-05T04:44:37.864Z,4820.48
2023-05-05T04:45:38.000Z,5066.24
2023-05-05T04:46:38.204Z,5117.44
2023-05-05T04:47:38.222Z,4600.32
2023-05-05T04:48:38.304Z,3978.24
2023-05-05T04:49:38.455Z,4016.64
2023-05-05T04:50:38.610Z,4462.08
2023-05-05T04:51:38.767Z,4579.84
2023-05-05T04:52:38.912Z,4592.64
2023-05-05T04:53:39.027Z,4111.36
2023-05-05T04:54:39.177Z,4720.64
2023-05-05T04:55:39.278Z,4270.08
2023-05-05T04:56:39.423Z,4974.08
2023-05-05T04:57:39.587Z,5166.08
2023-05-05T04:58:39.726Z,5035.52
2023-05-05T04:59:39.878Z,4556.8
2023-05-05T05:00:40.037Z,5132.8
2023-05-05T05:01:40.221Z,4933.12
2023-05-05T05:02:40.384Z,5457.92
2023-05-05T05:03:40.518Z,6046.72
2023-05-05T05:04:40.589Z,4595.2
2023-05-05T05:05:40.731Z,4605.44
2023-05-05T05:06:40.886Z,7321.6
2023-05-05T05:07:41.044Z,8145.92
2023-05-05T05:08:41.192Z,8483.84
2023-05-05T05:09:41.352Z,9139.2
2023-05-05T05:10:41.500Z,8688.64
2023-05-05T05:11:41.651Z,8115.2
2023-05-05T05:12:41.813Z,6307.84
2023-05-05T05:13:41.976Z,6712.32
2023-05-05T05:14:42.104Z,6220.8
2023-05-05T05:15:42.264Z,6256.64
2023-05-05T05:16:42.392Z,6492.16
2023-05-05T05:17:42.531Z,5862.4
2023-05-05T05:18:42.614Z,5335.04
2023-05-05T05:19:42.791Z,6113.28
2023-05-05T05:20:42.934Z,7019.52
2023-05-05T05:21:43.476Z,7429.12
2023-05-05T05:22:43.170Z,7854.08
2023-05-05T05:23:43.283Z,8181.76
2023-05-05T05:24:43.418Z,8872.96
2023-05-05T05:25:43.581Z,9006.08
2023-05-05T05:26:43.757Z,8744.96
2023-05-05T05:27:44.128Z,8110.08
2023-05-05T05:28:44.024Z,7751.68
2023-05-05T05:29:44.149Z,8104.96
2023-05-05T05:30:44.287Z,8212.48
2023-05-05T05:31:44.450Z,7971.84
2023-05-05T05:32:44.637Z,7736.32
2023-05-05T05:33:44.738Z,8376.32
2023-05-05T05:34:44.897Z,8166.4
2023-05-05T05:35:45.047Z,8453.12
2023-05-05T05:36:45.207Z,8499.2
2023-05-05T05:37:45.348Z,7746.56
2023-05-05T05:38:45.493Z,6348.8
2023-05-05T05:39:45.599Z,6599.68
2023-05-05T05:40:45.789Z,6016
2023-05-05T05:41:45.899Z,6236.16
2023-05-05T05:42:46.044Z,5534.72
2023-05-05T05:43:46.202Z,7828.48
2023-05-05T05:44:46.363Z,7971.84
2023-05-05T05:45:46.526Z,7710.72
2023-05-05T05:46:46.600Z,5770.24
2023-05-05T05:47:46.755Z,8232.96
2023-05-05T05:48:46.916Z,8212.48
2023-05-05T05:49:47.002Z,8192
2023-05-05T05:50:47.104Z,8125.44
2023-05-05T05:51:47.261Z,8033.28
2023-05-05T05:52:47.418Z,7695.36
2023-05-05T05:53:47.575Z,7895.04
2023-05-05T05:54:47.722Z,8033.28
2023-05-05T05:55:47.877Z,7987.2
2023-05-05T05:56:48.032Z,7982.08
2023-05-05T05:57:48.130Z,7951.36
2023-05-05T05:58:48.266Z,7920.64
2023-05-05T05:59:48.387Z,7874.56
2023-05-05T06:00:48.529Z,7854.08
2023-05-05T06:01:48.690Z,7838.72
2023-05-05T06:02:48.898Z,7792.64
2023-05-05T06:03:49.022Z,7843.84
2023-05-05T06:04:49.126Z,7808
2023-05-05T06:05:49.248Z,7802.88
2023-05-05T06:06:49.386Z,7792.64
2023-05-05T06:07:49.541Z,7792.64
2023-05-05T06:08:49.635Z,7777.28
2023-05-05T06:09:49.788Z,7772.16
2023-05-05T06:10:49.887Z,7767.04
2023-05-05T06:11:50.037Z,7756.8
2023-05-05T06:12:50.211Z,7731.2
2023-05-05T06:13:50.300Z,7690.24
2023-05-05T06:14:50.443Z,7720.96
2023-05-05T06:15:50.644Z,7736.32
2023-05-05T06:16:50.762Z,7726.08
2023-05-05T06:17:50.875Z,7695.36
2023-05-05T06:18:51.028Z,7726.08
2023-05-05T06:19:52.433Z,7782.4
2023-05-05T06:20:51.317Z,7767.04
2023-05-05T06:21:51.453Z,7782.4
2023-05-05T06:22:51.616Z,7808
2023-05-05T06:23:51.769Z,7828.48
2023-05-05T06:24:51.917Z,7854.08
2023-05-05T06:25:52.063Z,7848.96
2023-05-05T06:26:52.223Z,7879.68
2023-05-05T06:27:52.364Z,7864.32
2023-05-05T06:28:52.551Z,7920.64
2023-05-05T06:29:52.674Z,8007.68
2023-05-05T06:30:52.827Z,8023.04
2023-05-05T06:31:53.059Z,8135.68
2023-05-05T06:32:53.124Z,8120.32
2023-05-05T06:33:53.273Z,8074.24
2023-05-05T06:34:53.450Z,8043.52
2023-05-05T06:35:53.588Z,8023.04
2023-05-05T06:36:53.789Z,8038.4
2023-05-05T06:37:53.893Z,8023.04
2023-05-05T06:38:54.059Z,8038.4
2023-05-05T06:39:54.203Z,8017.92
2023-05-05T06:40:54.347Z,8074.24
2023-05-05T06:41:54.442Z,8145.92
2023-05-05T06:42:54.600Z,8217.6
2023-05-05T06:43:54.740Z,8232.96
2023-05-05T06:44:54.900Z,8273.92
2023-05-05T06:45:55.061Z,8320
2023-05-05T06:46:55.185Z,8345.6
2023-05-05T06:47:55.320Z,8366.08
2023-05-05T06:48:55.468Z,8376.32
2023-05-05T06:49:55.603Z,8381.44
2023-05-05T06:50:55.768Z,8386.56
2023-05-05T06:51:55.916Z,8376.32
2023-05-05T06:52:56.073Z,8401.92
2023-05-05T06:53:56.158Z,8381.44
2023-05-05T06:54:56.305Z,8325.12
2023-05-05T06:55:56.459Z,8263.68
2023-05-05T06:57:56.788Z,8023.04
2023-05-05T06:58:56.922Z,8238.08
2023-05-05T06:59:57.088Z,8268.8
2023-05-05T07:00:57.293Z,7869.44
2023-05-05T07:01:57.321Z,8258.56
2023-05-05T07:02:57.503Z,8284.16
2023-05-05T07:03:57.611Z,8407.04
2023-05-05T07:04:57.937Z,8473.6
2023-05-05T07:05:57.888Z,8458.24
2023-05-05T07:06:57.995Z,8499.2
2023-05-05T07:07:58.156Z,8504.319
2023-05-05T07:08:58.298Z,8586.24
2023-05-05T07:09:58.444Z,8622.08
2023-05-05T07:10:58.597Z,8663.04
2023-05-05T07:11:58.741Z,8704
2023-05-05T07:12:58.864Z,8755.2
2023-05-05T07:13:59.009Z,8780.8
2023-05-05T07:14:59.107Z,8826.88
2023-05-05T07:15:59.206Z,8872.96
2023-05-05T07:16:59.325Z,8898.56
2023-05-05T07:17:59.443Z,8924.16
2023-05-05T07:18:59.545Z,8960
2023-05-05T07:19:59.662Z,9011.2
2023-05-05T07:20:59.808Z,9036.8
2023-05-05T07:21:59.959Z,9077.76
2023-05-05T07:23:00.103Z,9118.72
2023-05-05T07:24:00.262Z,9159.68
2023-05-05T07:25:00.426Z,9205.76
2023-05-05T07:26:00.533Z,9251.84
2023-05-05T07:27:00.664Z,9308.16
2023-05-05T07:28:00.815Z,9359.359
2023-05-05T07:29:00.964Z,9405.439
2023-05-05T07:30:01.083Z,9461.76
2023-05-05T07:31:01.217Z,9507.84
2023-05-05T07:32:01.453Z,9559.04
2023-05-05T07:33:01.556Z,9605.12
2023-05-05T07:34:01.693Z,9635.84
2023-05-05T07:35:01.798Z,9666.56
2023-05-05T07:36:01.938Z,9676.8
2023-05-05T07:37:02.095Z,9676.8
2023-05-05T07:38:02.256Z,9717.76
2023-05-05T07:39:02.409Z,9768.96
2023-05-05T07:40:02.549Z,9784.319
2023-05-05T07:41:02.701Z,9840.64
2023-05-05T07:42:02.844Z,9943.04
2023-05-05T07:43:03.001Z,10030.08
2023-05-05T07:44:03.141Z,10050.56
2023-05-05T07:45:03.312Z,10101.76
2023-05-05T07:46:03.485Z,10178.56
2023-05-05T07:47:03.599Z,10214.399
2023-05-05T07:48:03.812Z,10306.56
2023-05-05T07:49:03.906Z,10342.399
2023-05-05T07:50:04.024Z,10378.24
2023-05-05T07:51:04.164Z,10455.04
2023-05-05T07:52:04.315Z,10526.72
2023-05-05T07:53:13.427Z,10639.359
2023-05-05T07:54:04.613Z,10711.04
2023-05-05T07:55:04.940Z,10782.72
2023-05-05T07:56:04.912Z,10915.84
2023-05-05T07:57:05.068Z,11089.92
2023-05-05T07:58:05.211Z,11253.76
2023-05-05T07:59:05.291Z,11407.359
2023-05-05T08:00:05.483Z,11663.359
2023-05-05T08:01:05.539Z,11929.6
2023-05-05T08:02:05.649Z,12421.12
2023-05-05T08:03:07.154Z,12830.72
2023-05-05T08:04:05.940Z,14305.279
2023-05-05T08:05:06.187Z,12574.72
2023-05-05T08:06:06.189Z,11847.68
2023-05-05T08:07:06.350Z,13486.08
2023-05-05T08:08:06.721Z,12369.92
2023-05-05T08:09:06.839Z,12369.92
2023-05-05T08:10:06.936Z,14520.319
2023-05-05T08:11:07.090Z,14202.88
2023-05-05T08:12:07.265Z,14530.56
2023-05-05T08:13:07.422Z,14110.72
2023-05-05T08:14:07.499Z,12011.52
2023-05-05T08:15:07.974Z,14305.279
2023-05-05T08:16:07.886Z,9917.439
2023-05-05T08:17:07.956Z,12032
2023-05-05T08:18:08.132Z,18442.24
2023-05-05T08:19:17.802Z,18565.12
2023-05-05T08:20:08.429Z,18647.04
2023-05-05T08:21:08.560Z,18718.72
2023-05-05T08:22:08.719Z,18718.72
2023-05-05T08:23:08.864Z,19025.92
2023-05-05T08:24:09.030Z,19384.32
2023-05-05T08:25:09.275Z,19681.28
2023-05-05T08:26:09.349Z,19783.68
2023-05-05T08:27:09.470Z,20039.68
2023-05-05T08:28:09.627Z,20326.4
2023-05-05T08:29:09.775Z,20572.16
2023-05-05T08:30:09.973Z,21196.8
2023-05-05T08:31:10.066Z,21483.52
2023-05-05T08:32:10.185Z,21667.84
2023-05-05T08:33:10.408Z,22077.44
2023-05-05T08:34:10.489Z,22528
2023-05-05T08:35:11.060Z,22630.4
2023-05-05T08:36:10.785Z,22814.72
2023-05-05T08:37:11.429Z,22999.04
2023-05-05T08:38:11.099Z,23224.32
2023-05-05T08:39:11.188Z,23756.8
2023-05-05T08:40:11.356Z,23101.44
2023-05-05T08:41:11.489Z,23982.08
2023-05-05T08:42:11.804Z,23347.2
2023-05-05T08:43:11.751Z,23654.4
2023-05-05T08:44:11.903Z,25292.8
2023-05-05T08:45:12.279Z,25169.92
2023-05-05T08:46:12.201Z,25456.64
2023-05-05T08:47:12.302Z,25600
2023-05-05T08:48:12.461Z,26091.52
2023-05-05T08:49:12.611Z,26071.04
2023-05-05T08:50:12.754Z,26439.68
2023-05-05T08:51:12.912Z,27033.6
2023-05-05T08:52:13.097Z,27463.68
2023-05-05T08:53:13.215Z,27852.8
2023-05-05T08:54:13.313Z,28712.96
2023-05-05T08:55:13.465Z,29388.8
2023-05-05T08:56:13.634Z,30351.36
2023-05-05T08:57:13.768Z,30863.36
2023-05-05T08:58:13.941Z,31375.36
2023-05-05T08:59:14.076Z,29409.28
2023-05-05T09:00:14.897Z,28631.04
2023-05-05T09:02:14.970Z,31723.52
2023-05-05T09:03:14.736Z,30965.76
2023-05-05T09:04:14.784Z,31784.96
2023-05-05T09:05:14.961Z,32542.72
2023-05-05T09:06:15.103Z,33239.04
2023-05-05T09:07:15.243Z,30330.88
2023-05-05T09:08:15.406Z,28344.32
2023-05-05T09:09:15.537Z,31477.76
2023-05-05T09:10:15.681Z,34160.64
2023-05-05T09:11:15.808Z,34058.24
2023-05-05T09:12:15.974Z,34611.2
2023-05-05T09:13:16.165Z,35348.48
2023-05-05T09:14:16.252Z,35901.44
2023-05-05T09:15:16.463Z,36679.68
2023-05-05T09:16:16.602Z,36823.04
2023-05-05T09:17:16.665Z,36659.2
2023-05-05T09:18:16.826Z,37007.36
2023-05-05T09:19:16.914Z,37273.6
2023-05-05T09:20:17.052Z,39280.64
2023-05-05T09:21:17.211Z,38195.2
2023-05-05T09:22:17.363Z,40693.76
2023-05-05T09:23:17.521Z,41390.08
2023-05-05T09:24:17.662Z,41328.64
2023-05-05T09:25:17.823Z,41779.2
2023-05-05T09:26:17.923Z,41697.28
2023-05-05T09:27:18.109Z,42147.84
2023-05-05T09:28:18.253Z,42598.4
2023-05-05T09:29:18.375Z,43335.68
2023-05-05T09:30:18.547Z,44072.96
2023-05-05T09:31:18.705Z,44441.6
2023-05-05T09:32:18.852Z,45506.56
2023-05-05T09:33:18.985Z,43827.2
2023-05-05T09:34:19.130Z,41308.16
2023-05-05T09:35:19.296Z,42024.96
2023-05-05T09:36:19.421Z,45547.52
2023-05-05T09:37:19.539Z,46120.96
2023-05-05T09:38:19.685Z,45752.32
2023-05-05T09:39:19.798Z,46448.64
2023-05-05T09:40:20.084Z,46694.4
2023-05-05T09:41:20.047Z,48496.64
2023-05-05T09:42:20.189Z,47841.28
2023-05-05T09:43:20.355Z,47718.4
2023-05-05T09:44:20.571Z,47882.24
2023-05-05T09:45:20.675Z,46284.8
2023-05-05T09:46:20.820Z,43622.4
2023-05-05T09:47:29.261Z,44933.12
2023-05-05T09:48:21.157Z,46489.6
2023-05-05T09:49:21.212Z,46039.04
2023-05-05T09:50:21.387Z,48496.64
2023-05-05T09:51:21.571Z,50257.92
2023-05-05T09:52:21.663Z,50053.12
2023-05-05T09:53:21.842Z,50831.36
2023-05-05T09:54:21.966Z,51609.6
2023-05-05T09:55:22.107Z,51691.52
2023-05-05T09:56:22.266Z,49274.88
2023-05-05T09:57:22.420Z,49315.84
2023-05-05T09:58:22.546Z,53084.16
2023-05-05T09:59:22.836Z,53534.72
2023-05-05T10:00:22.842Z,55214.08
2023-05-05T10:01:22.970Z,55296
2023-05-05T10:02:23.077Z,54886.4
2023-05-05T10:03:23.231Z,53616.64
2023-05-05T10:04:23.396Z,51732.48
2023-05-05T10:05:23.736Z,55214.08
2023-05-05T10:06:23.638Z,57098.24
2023-05-05T10:07:23.809Z,57876.48
2023-05-05T10:08:23.946Z,56934.4
2023-05-05T10:09:24.090Z,55746.56
2023-05-05T10:10:24.234Z,58613.76
2023-05-05T10:11:24.398Z,55828.48
2023-05-05T10:12:24.543Z,56115.2
2023-05-05T10:13:24.719Z,60661.76
2023-05-05T10:14:24.857Z,60579.84
2023-05-05T10:15:25.004Z,62382.08
2023-05-05T10:16:25.930Z,60293.12
2023-05-05T10:17:25.317Z,59678.72
2023-05-05T10:18:25.487Z,61112.32
2023-05-05T10:19:25.550Z,60948.48
2023-05-05T10:20:25.703Z,60334.08
2023-05-05T10:21:25.859Z,60538.88
2023-05-05T10:22:26.009Z,61480.96
2023-05-05T10:23:26.169Z,62136.32
2023-05-05T10:24:26.327Z,64430.08
2023-05-05T10:25:26.419Z,69754.88
2023-05-05T10:26:26.570Z,70082.56
2023-05-05T10:27:26.730Z,69181.44
2023-05-05T10:28:26.877Z,64143.36
2023-05-05T10:29:26.985Z,66969.6
2023-05-05T10:30:27.122Z,65085.44
2023-05-05T10:31:27.337Z,65413.12
2023-05-05T10:32:43.065Z,57425.92
2023-05-05T10:33:31.865Z,58859.52
2023-05-05T10:34:27.665Z,68894.72
2023-05-05T10:35:27.781Z,69672.96
2023-05-05T10:36:27.907Z,70778.88
2023-05-05T10:37:28.056Z,72990.72
2023-05-05T10:38:28.187Z,75612.16
2023-05-05T10:39:28.357Z,76513.28
2023-05-05T10:40:28.490Z,76554.24
2023-05-05T10:41:28.642Z,75857.92
2023-05-05T10:42:28.793Z,69918.72
2023-05-05T10:43:28.913Z,65986.56
2023-05-05T10:44:29.053Z,68730.88
2023-05-05T10:45:29.312Z,68157.44
2023-05-05T10:46:29.394Z,73359.36
2023-05-05T10:47:29.556Z,71925.76
2023-05-05T10:48:29.686Z,76267.52
2023-05-05T10:49:29.808Z,77455.36
2023-05-05T10:50:29.974Z,72540.16
2023-05-05T10:51:39.169Z,66355.2
2023-05-05T10:52:30.278Z,59064.32
2023-05-05T10:53:30.378Z,56647.68
2023-05-05T10:54:30.668Z,63078.4
2023-05-05T10:55:30.676Z,64962.56
2023-05-05T10:56:30.823Z,59269.12
2023-05-05T10:57:30.977Z,66191.36
2023-05-05T10:58:31.128Z,72253.44
2023-05-05T10:59:31.282Z,78356.48
2023-05-05T11:00:31.432Z,70942.72
2023-05-05T11:01:31.658Z,67051.52
2023-05-05T11:02:31.784Z,72990.72
2023-05-05T11:03:31.919Z,73523.2
2023-05-05T11:04:32.041Z,63488
2023-05-05T11:05:32.176Z,62382.08
2023-05-05T11:06:32.335Z,52838.4
2023-05-05T11:07:32.493Z,65945.6
2023-05-05T11:08:32.601Z,71188.48
2023-05-05T11:09:32.758Z,71884.8
2023-05-05T11:10:32.903Z,75079.68
2023-05-05T11:11:33.041Z,72089.6
2023-05-05T11:12:33.235Z,71311.36
2023-05-05T11:13:33.303Z,74833.92
2023-05-05T11:14:33.421Z,80445.44
2023-05-05T11:15:33.587Z,81633.28
2023-05-05T11:16:33.694Z,84869.12
2023-05-05T11:17:33.841Z,87900.16
2023-05-05T11:18:34.000Z,89784.32
2023-05-05T11:19:34.154Z,87982.08
2023-05-05T11:20:34.312Z,87572.48
2023-05-05T11:21:34.467Z,80977.92
2023-05-05T11:22:34.632Z,86999.04
2023-05-05T11:23:34.720Z,88965.12
2023-05-05T11:24:34.878Z,83804.16
2023-05-05T11:25:35.048Z,81879.04
2023-05-05T11:26:35.172Z,75735.04
2023-05-05T11:27:35.337Z,73482.24
2023-05-05T11:28:35.428Z,81346.56
2023-05-05T11:29:35.609Z,82124.8
2023-05-05T11:30:35.694Z,80035.84
2023-05-05T11:31:35.900Z,81592.32
2023-05-05T11:32:36.050Z,82903.04
2023-05-05T11:33:36.132Z,76349.44
2023-05-05T11:34:36.300Z,82739.2
2023-05-05T11:35:36.445Z,87654.4
2023-05-05T11:36:36.585Z,89620.48
2023-05-05T11:37:36.748Z,87162.88
2023-05-05T11:38:36.896Z,85278.72
2023-05-05T11:39:37.053Z,88309.76
2023-05-05T11:40:37.149Z,89047.04
2023-05-05T11:41:37.292Z,89292.8
2023-05-05T11:42:37.449Z,92078.08
2023-05-05T11:43:37.592Z,91914.23
2023-05-05T11:44:37.765Z,89047.04
2023-05-05T11:45:37.900Z,92569.6
2023-05-05T11:46:38.077Z,92569.6
2023-05-05T11:47:38.236Z,91095.04
2023-05-05T11:48:38.372Z,90685.44
2023-05-05T11:49:38.546Z,90685.44
2023-05-05T11:50:38.679Z,90030.08
2023-05-05T11:51:38.837Z,89374.72
2023-05-05T11:52:38.914Z,85032.96
2023-05-05T11:53:39.063Z,83025.92
2023-05-05T11:54:39.167Z,80691.2
2023-05-05T11:55:39.329Z,74915.84
2023-05-05T11:56:39.511Z,77332.48
2023-05-05T11:57:39.628Z,82739.2
2023-05-05T11:58:39.775Z,88227.84
2023-05-05T11:59:39.915Z,88309.76
2023-05-05T12:00:40.081Z,89047.04
2023-05-05T12:01:40.234Z,87818.23
2023-05-05T12:02:40.498Z,82862.08
2023-05-05T12:03:40.632Z,83353.6
2023-05-05T12:04:40.656Z,84705.28
2023-05-05T12:05:40.780Z,87490.55
2023-05-05T12:06:40.929Z,85934.08
2023-05-05T12:07:41.121Z,82370.56
2023-05-05T12:08:41.264Z,83804.16
2023-05-05T12:09:41.346Z,85114.88
2023-05-05T12:10:41.490Z,85852.16
2023-05-05T12:11:41.651Z,86179.84
2023-05-05T12:12:41.775Z,77168.64
2023-05-05T12:13:41.911Z,81346.56
2023-05-05T12:14:42.050Z,76144.64
2023-05-05T12:15:42.205Z,79462.4
2023-05-05T12:16:42.405Z,83435.52
2023-05-05T12:17:42.609Z,80650.24
2023-05-05T12:18:42.658Z,77291.52
2023-05-05T12:19:42.692Z,80814.08
2023-05-05T12:20:42.799Z,94781.44
2023-05-05T12:21:42.901Z,89866.23
2023-05-05T12:22:43.049Z,90193.92
2023-05-05T12:23:43.206Z,94699.52
2023-05-05T12:24:43.354Z,92487.68
2023-05-05T12:25:43.506Z,83230.72
2023-05-05T12:26:44.032Z,75898.88
2023-05-05T12:27:43.771Z,70410.24
2023-05-05T12:28:43.928Z,76472.32
2023-05-05T12:29:44.088Z,83763.2